Pagrindinis puslapis
METAR-TAF:

METAR-TAF

Oro uostai :

Savoonga, Aliaska, Jungtinės Amerikos Valstijos

platuma: 63-41N, ilguma: 170-30W, Aukštis: 16 m

Dabartinis oras

Ataskaita buvo paskelbta 28 minutes, ne 06:56 UTC
Ramus vėjas
Temperatūra -25°C
Drėgmė 76%
Slėgis 1019 hPa
Matomumas: 16.1 km

METAR: PASA 280656Z AUTO 00000KT 10SM M25/M28 A3009 RMK AO2 SLP190 T12501278 FZRANO $

Laikas: 22:24 (07:24 UTC)


TAF: trūkstamas

Orai ataskaitas ir orų prognozės (METAR, TAF).

turimą stotys yra geltonos ir raudonos taškus žemėlapyje.

Perkelti pele per norėdami pamatyti stoties vardą.

Tada spustelėkite, norėdami matyti oro stebėjimo ir prognozės.

Norėdami pakeisti žemėlapį: spustelėkite ant žalios mygtukų su juodo kryžiaus žemyn,; žalią mygtuką su brūkšneliu, jei norite nutolinti; arba žalių rodyklių gretimoms žemėlapius.


METAR-TAF: